sensor_id;sensor_type;location;lat;lon;timestamp;P1;durP1;ratioP1;P2;durP2;ratioP2
27642;SDS011;15053;48.618;10.024;2023-06-26T00:00:59;12.90;;;9.40;;
27642;SDS011;15053;48.618;10.024;2023-06-26T00:03:28;13.48;;;8.38;;
27642;SDS011;15053;48.618;10.024;2023-06-26T00:05:55;11.88;;;8.00;;
27642;SDS011;15053;48.618;10.024;2023-06-26T00:10:53;12.43;;;9.32;;
27642;SDS011;15053;48.618;10.024;2023-06-26T00:13:20;12.10;;;8.45;;
27642;SDS011;15053;48.618;10.024;2023-06-26T00:15:47;13.95;;;8.90;;
27642;SDS011;15053;48.618;10.024;2023-06-26T00:18:14;10.90;;;8.52;;
27642;SDS011;15053;48.618;10.024;2023-06-26T00:20:40;12.30;;;9.40;;
27642;SDS011;15053;48.618;10.024;2023-06-26T00:23:07;12.63;;;9.00;;
27642;SDS011;15053;48.618;10.024;2023-06-26T00:25:34;13.50;;;9.20;;
27642;SDS011;15053;48.618;10.024;2023-06-26T00:28:00;11.18;;;8.30;;
27642;SDS011;15053;48.618;10.024;2023-06-26T00:30:27;12.68;;;9.15;;
27642;SDS011;15053;48.618;10.024;2023-06-26T00:32:56;12.30;;;8.98;;
27642;SDS011;15053;48.618;10.024;2023-06-26T00:35:23;12.60;;;9.65;;
27642;SDS011;15053;48.618;10.024;2023-06-26T00:37:49;12.82;;;9.45;;
27642;SDS011;15053;48.618;10.024;2023-06-26T00:40:16;12.50;;;8.90;;
27642;SDS011;15053;48.618;10.024;2023-06-26T00:42:43;13.00;;;9.25;;
27642;SDS011;15053;48.618;10.024;2023-06-26T00:45:09;11.30;;;8.80;;
27642;SDS011;15053;48.618;10.024;2023-06-26T00:47:36;11.40;;;8.55;;
27642;SDS011;15053;48.618;10.024;2023-06-26T00:50:03;14.57;;;9.10;;
27642;SDS011;15053;48.618;10.024;2023-06-26T00:52:31;14.93;;;9.43;;
27642;SDS011;15053;48.618;10.024;2023-06-26T00:54:58;19.00;;;11.23;;
27642;SDS011;15053;48.618;10.024;2023-06-26T00:57:25;16.95;;;10.82;;
27642;SDS011;15053;48.618;10.024;2023-06-26T00:59:53;18.00;;;11.90;;
27642;SDS011;15053;48.618;10.024;2023-06-26T01:02:20;16.20;;;10.93;;
27642;SDS011;15053;48.618;10.024;2023-06-26T01:04:49;19.75;;;12.10;;
27642;SDS011;15053;48.618;10.024;2023-06-26T01:07:16;22.48;;;13.23;;
27642;SDS011;15053;48.618;10.024;2023-06-26T01:09:47;19.58;;;12.10;;
27642;SDS011;15053;48.618;10.024;2023-06-26T01:12:14;22.40;;;12.10;;
27642;SDS011;15053;48.618;10.024;2023-06-26T01:14:41;24.05;;;12.73;;
27642;SDS011;15053;48.618;10.024;2023-06-26T01:17:08;19.33;;;12.38;;
27642;SDS011;15053;48.618;10.024;2023-06-26T01:19:41;24.88;;;13.40;;
27642;SDS011;15053;48.618;10.024;2023-06-26T01:25:03;18.90;;;11.85;;
27642;SDS011;15053;48.618;10.024;2023-06-26T01:27:34;18.65;;;11.38;;
27642;SDS011;15053;48.618;10.024;2023-06-26T01:30:02;19.88;;;12.13;;
27642;SDS011;15053;48.618;10.024;2023-06-26T01:32:31;21.35;;;12.55;;
27642;SDS011;15053;48.618;10.024;2023-06-26T01:34:59;20.00;;;12.02;;
27642;SDS011;15053;48.618;10.024;2023-06-26T01:37:28;18.08;;;11.45;;
27642;SDS011;15053;48.618;10.024;2023-06-26T01:39:55;19.00;;;11.23;;
27642;SDS011;15053;48.618;10.024;2023-06-26T01:42:21;17.67;;;11.10;;
27642;SDS011;15053;48.618;10.024;2023-06-26T01:44:48;15.02;;;10.00;;
27642;SDS011;15053;48.618;10.024;2023-06-26T01:47:16;15.05;;;10.40;;
27642;SDS011;15053;48.618;10.024;2023-06-26T01:52:29;17.02;;;10.25;;
27642;SDS011;15053;48.618;10.024;2023-06-26T01:55:10;14.55;;;10.07;;
27642;SDS011;15053;48.618;10.024;2023-06-26T01:57:43;12.30;;;9.40;;
27642;SDS011;15053;48.618;10.024;2023-06-26T02:00:14;12.75;;;9.30;;
27642;SDS011;15053;48.618;10.024;2023-06-26T02:02:44;12.13;;;9.32;;
27642;SDS011;15053;48.618;10.024;2023-06-26T02:05:12;14.18;;;9.25;;
27642;SDS011;15053;48.618;10.024;2023-06-26T02:07:40;13.90;;;9.32;;
27642;SDS011;15053;48.618;10.024;2023-06-26T02:10:07;14.48;;;9.27;;
27642;SDS011;15053;48.618;10.024;2023-06-26T02:12:34;12.00;;;9.10;;
27642;SDS011;15053;48.618;10.024;2023-06-26T02:15:02;13.60;;;9.48;;
27642;SDS011;15053;48.618;10.024;2023-06-26T02:17:29;14.75;;;10.00;;
27642;SDS011;15053;48.618;10.024;2023-06-26T02:19:56;13.70;;;9.90;;
27642;SDS011;15053;48.618;10.024;2023-06-26T02:22:22;15.05;;;9.80;;
27642;SDS011;15053;48.618;10.024;2023-06-26T02:24:49;13.80;;;9.35;;
27642;SDS011;15053;48.618;10.024;2023-06-26T02:27:16;15.15;;;9.43;;
27642;SDS011;15053;48.618;10.024;2023-06-26T02:29:42;11.90;;;9.02;;
27642;SDS011;15053;48.618;10.024;2023-06-26T02:32:08;12.95;;;9.60;;
27642;SDS011;15053;48.618;10.024;2023-06-26T02:34:35;15.73;;;9.95;;
27642;SDS011;15053;48.618;10.024;2023-06-26T02:37:02;13.45;;;9.23;;
27642;SDS011;15053;48.618;10.024;2023-06-26T02:39:29;13.93;;;9.45;;
27642;SDS011;15053;48.618;10.024;2023-06-26T02:41:55;13.13;;;9.45;;
27642;SDS011;15053;48.618;10.024;2023-06-26T02:44:23;15.82;;;9.50;;
27642;SDS011;15053;48.618;10.024;2023-06-26T02:46:49;16.13;;;10.70;;
27642;SDS011;15053;48.618;10.024;2023-06-26T02:49:16;12.70;;;9.65;;
27642;SDS011;15053;48.618;10.024;2023-06-26T02:51:45;14.73;;;9.57;;
27642;SDS011;15053;48.618;10.024;2023-06-26T02:54:19;14.50;;;9.43;;
27642;SDS011;15053;48.618;10.024;2023-06-26T02:59:22;14.10;;;9.63;;
27642;SDS011;15053;48.618;10.024;2023-06-26T03:01:50;13.77;;;9.70;;
27642;SDS011;15053;48.618;10.024;2023-06-26T03:04:17;12.88;;;9.63;;
27642;SDS011;15053;48.618;10.024;2023-06-26T03:06:45;15.00;;;9.95;;
27642;SDS011;15053;48.618;10.024;2023-06-26T03:09:11;12.60;;;8.57;;
27642;SDS011;15053;48.618;10.024;2023-06-26T03:11:38;11.93;;;8.68;;
27642;SDS011;15053;48.618;10.024;2023-06-26T03:14:04;11.65;;;8.30;;
27642;SDS011;15053;48.618;10.024;2023-06-26T03:16:31;11.70;;;9.27;;
27642;SDS011;15053;48.618;10.024;2023-06-26T03:18:57;14.50;;;9.80;;
27642;SDS011;15053;48.618;10.024;2023-06-26T03:21:25;15.55;;;9.75;;
27642;SDS011;15053;48.618;10.024;2023-06-26T03:23:52;14.13;;;9.73;;
27642;SDS011;15053;48.618;10.024;2023-06-26T03:26:19;13.18;;;9.27;;
27642;SDS011;15053;48.618;10.024;2023-06-26T03:28:47;16.08;;;10.00;;
27642;SDS011;15053;48.618;10.024;2023-06-26T03:31:14;15.80;;;9.93;;
27642;SDS011;15053;48.618;10.024;2023-06-26T03:33:40;14.13;;;9.38;;
27642;SDS011;15053;48.618;10.024;2023-06-26T03:36:07;14.90;;;9.93;;
27642;SDS011;15053;48.618;10.024;2023-06-26T03:38:34;16.20;;;8.77;;
27642;SDS011;15053;48.618;10.024;2023-06-26T03:41:00;15.68;;;9.45;;
27642;SDS011;15053;48.618;10.024;2023-06-26T03:43:27;13.63;;;9.73;;
27642;SDS011;15053;48.618;10.024;2023-06-26T03:46:06;14.38;;;9.45;;
27642;SDS011;15053;48.618;10.024;2023-06-26T03:48:32;14.45;;;9.68;;
27642;SDS011;15053;48.618;10.024;2023-06-26T03:50:59;13.43;;;8.77;;
27642;SDS011;15053;48.618;10.024;2023-06-26T03:53:27;15.40;;;9.45;;
27642;SDS011;15053;48.618;10.024;2023-06-26T03:55:55;14.38;;;8.98;;
27642;SDS011;15053;48.618;10.024;2023-06-26T03:58:22;14.75;;;9.07;;
27642;SDS011;15053;48.618;10.024;2023-06-26T04:00:48;14.02;;;8.13;;
27642;SDS011;15053;48.618;10.024;2023-06-26T04:03:15;13.65;;;8.25;;
27642;SDS011;15053;48.618;10.024;2023-06-26T04:05:42;10.70;;;8.07;;
27642;SDS011;15053;48.618;10.024;2023-06-26T04:08:08;11.90;;;8.65;;
27642;SDS011;15053;48.618;10.024;2023-06-26T04:10:35;14.68;;;9.30;;
27642;SDS011;15053;48.618;10.024;2023-06-26T04:13:04;15.90;;;9.68;;
27642;SDS011;15053;48.618;10.024;2023-06-26T04:15:30;13.48;;;9.75;;
27642;SDS011;15053;48.618;10.024;2023-06-26T04:17:57;16.85;;;11.10;;
27642;SDS011;15053;48.618;10.024;2023-06-26T04:20:23;15.55;;;9.55;;
27642;SDS011;15053;48.618;10.024;2023-06-26T04:22:50;13.73;;;7.95;;
27642;SDS011;15053;48.618;10.024;2023-06-26T04:25:16;12.70;;;8.38;;
27642;SDS011;15053;48.618;10.024;2023-06-26T04:27:43;15.43;;;8.45;;
27642;SDS011;15053;48.618;10.024;2023-06-26T04:30:09;13.95;;;8.45;;
27642;SDS011;15053;48.618;10.024;2023-06-26T04:32:36;11.82;;;8.45;;
27642;SDS011;15053;48.618;10.024;2023-06-26T04:35:03;13.73;;;7.95;;
27642;SDS011;15053;48.618;10.024;2023-06-26T04:37:30;10.15;;;8.05;;
27642;SDS011;15053;48.618;10.024;2023-06-26T04:39:56;12.45;;;8.52;;
27642;SDS011;15053;48.618;10.024;2023-06-26T04:42:23;14.13;;;8.75;;
27642;SDS011;15053;48.618;10.024;2023-06-26T04:44:49;11.55;;;8.07;;
27642;SDS011;15053;48.618;10.024;2023-06-26T04:47:16;14.40;;;9.05;;
27642;SDS011;15053;48.618;10.024;2023-06-26T04:49:42;26.42;;;16.75;;
27642;SDS011;15053;48.618;10.024;2023-06-26T04:52:12;24.25;;;15.68;;
27642;SDS011;15053;48.618;10.024;2023-06-26T04:54:39;15.38;;;11.27;;
27642;SDS011;15053;48.618;10.024;2023-06-26T04:57:06;11.65;;;9.02;;
27642;SDS011;15053;48.618;10.024;2023-06-26T04:59:32;11.55;;;8.80;;
27642;SDS011;15053;48.618;10.024;2023-06-26T05:01:59;11.85;;;8.05;;
27642;SDS011;15053;48.618;10.024;2023-06-26T05:04:25;11.23;;;8.35;;
27642;SDS011;15053;48.618;10.024;2023-06-26T05:06:52;10.43;;;8.00;;
27642;SDS011;15053;48.618;10.024;2023-06-26T05:09:19;10.52;;;7.90;;
27642;SDS011;15053;48.618;10.024;2023-06-26T05:11:45;13.65;;;8.65;;
27642;SDS011;15053;48.618;10.024;2023-06-26T05:14:12;11.32;;;8.20;;
27642;SDS011;15053;48.618;10.024;2023-06-26T05:16:39;11.52;;;8.25;;
27642;SDS011;15053;48.618;10.024;2023-06-26T05:19:06;10.75;;;8.40;;
27642;SDS011;15053;48.618;10.024;2023-06-26T05:21:32;11.70;;;8.23;;
27642;SDS011;15053;48.618;10.024;2023-06-26T05:24:01;11.27;;;7.93;;
27642;SDS011;15053;48.618;10.024;2023-06-26T05:26:28;12.35;;;8.13;;
27642;SDS011;15053;48.618;10.024;2023-06-26T05:28:55;10.18;;;8.30;;
27642;SDS011;15053;48.618;10.024;2023-06-26T05:31:22;12.38;;;8.15;;
27642;SDS011;15053;48.618;10.024;2023-06-26T05:33:49;12.23;;;8.48;;
27642;SDS011;15053;48.618;10.024;2023-06-26T05:36:18;10.52;;;8.52;;
27642;SDS011;15053;48.618;10.024;2023-06-26T05:38:46;10.30;;;7.82;;
27642;SDS011;15053;48.618;10.024;2023-06-26T05:41:14;14.27;;;8.90;;
27642;SDS011;15053;48.618;10.024;2023-06-26T05:43:41;10.82;;;8.38;;
27642;SDS011;15053;48.618;10.024;2023-06-26T05:46:08;11.23;;;7.85;;
27642;SDS011;15053;48.618;10.024;2023-06-26T05:48:34;11.48;;;8.07;;
27642;SDS011;15053;48.618;10.024;2023-06-26T05:51:01;10.60;;;7.53;;
27642;SDS011;15053;48.618;10.024;2023-06-26T05:53:28;12.10;;;7.93;;
27642;SDS011;15053;48.618;10.024;2023-06-26T05:55:56;11.43;;;8.00;;
27642;SDS011;15053;48.618;10.024;2023-06-26T05:58:23;10.93;;;8.32;;
27642;SDS011;15053;48.618;10.024;2023-06-26T06:00:53;9.95;;;7.53;;
27642;SDS011;15053;48.618;10.024;2023-06-26T06:03:20;9.73;;;7.82;;
27642;SDS011;15053;48.618;10.024;2023-06-26T06:05:47;10.50;;;7.82;;
27642;SDS011;15053;48.618;10.024;2023-06-26T06:08:13;9.48;;;7.38;;
27642;SDS011;15053;48.618;10.024;2023-06-26T06:10:40;9.52;;;7.32;;
27642;SDS011;15053;48.618;10.024;2023-06-26T06:13:07;13.77;;;8.82;;
27642;SDS011;15053;48.618;10.024;2023-06-26T06:15:33;10.50;;;7.88;;
27642;SDS011;15053;48.618;10.024;2023-06-26T06:18:00;9.48;;;7.38;;
27642;SDS011;15053;48.618;10.024;2023-06-26T06:20:27;11.23;;;7.78;;
27642;SDS011;15053;48.618;10.024;2023-06-26T06:22:53;11.32;;;7.80;;
27642;SDS011;15053;48.618;10.024;2023-06-26T06:25:20;8.55;;;7.38;;
27642;SDS011;15053;48.618;10.024;2023-06-26T06:27:46;9.38;;;7.53;;
27642;SDS011;15053;48.618;10.024;2023-06-26T06:30:13;9.93;;;7.90;;
27642;SDS011;15053;48.618;10.024;2023-06-26T06:32:39;9.98;;;7.90;;
27642;SDS011;15053;48.618;10.024;2023-06-26T06:35:06;8.52;;;7.28;;
27642;SDS011;15053;48.618;10.024;2023-06-26T06:37:37;11.15;;;7.45;;
27642;SDS011;15053;48.618;10.024;2023-06-26T06:40:05;9.35;;;7.18;;
27642;SDS011;15053;48.618;10.024;2023-06-26T06:42:32;10.13;;;7.25;;
27642;SDS011;15053;48.618;10.024;2023-06-26T06:45:00;8.38;;;6.93;;
27642;SDS011;15053;48.618;10.024;2023-06-26T06:47:27;9.77;;;8.15;;
27642;SDS011;15053;48.618;10.024;2023-06-26T06:49:53;11.38;;;7.40;;
27642;SDS011;15053;48.618;10.024;2023-06-26T06:52:20;9.90;;;7.65;;
27642;SDS011;15053;48.618;10.024;2023-06-26T06:54:53;9.35;;;7.88;;
27642;SDS011;15053;48.618;10.024;2023-06-26T06:57:21;8.73;;;7.22;;
27642;SDS011;15053;48.618;10.024;2023-06-26T06:59:48;10.77;;;6.80;;
27642;SDS011;15053;48.618;10.024;2023-06-26T07:02:17;9.20;;;7.10;;
27642;SDS011;15053;48.618;10.024;2023-06-26T07:04:43;11.75;;;6.72;;
27642;SDS011;15053;48.618;10.024;2023-06-26T07:07:10;7.72;;;6.30;;
27642;SDS011;15053;48.618;10.024;2023-06-26T07:09:37;9.07;;;6.45;;
27642;SDS011;15053;48.618;10.024;2023-06-26T07:12:04;10.32;;;6.60;;
27642;SDS011;15053;48.618;10.024;2023-06-26T07:14:31;6.90;;;5.90;;
27642;SDS011;15053;48.618;10.024;2023-06-26T07:16:58;7.15;;;6.43;;
27642;SDS011;15053;48.618;10.024;2023-06-26T07:19:24;7.75;;;6.15;;
27642;SDS011;15053;48.618;10.024;2023-06-26T07:21:51;9.23;;;7.13;;
27642;SDS011;15053;48.618;10.024;2023-06-26T07:24:17;9.18;;;6.20;;
27642;SDS011;15053;48.618;10.024;2023-06-26T07:26:44;7.45;;;5.88;;
27642;SDS011;15053;48.618;10.024;2023-06-26T07:29:13;7.68;;;6.20;;
27642;SDS011;15053;48.618;10.024;2023-06-26T07:31:40;9.25;;;5.75;;
27642;SDS011;15053;48.618;10.024;2023-06-26T07:34:07;6.70;;;6.00;;
27642;SDS011;15053;48.618;10.024;2023-06-26T07:36:33;8.48;;;5.72;;
27642;SDS011;15053;48.618;10.024;2023-06-26T07:38:59;7.57;;;5.68;;
27642;SDS011;15053;48.618;10.024;2023-06-26T07:41:26;9.63;;;5.35;;
27642;SDS011;15053;48.618;10.024;2023-06-26T07:43:52;6.70;;;5.78;;
27642;SDS011;15053;48.618;10.024;2023-06-26T07:46:19;6.70;;;5.53;;
27642;SDS011;15053;48.618;10.024;2023-06-26T07:48:46;8.32;;;6.00;;
27642;SDS011;15053;48.618;10.024;2023-06-26T07:51:12;6.03;;;5.43;;
27642;SDS011;15053;48.618;10.024;2023-06-26T07:53:38;7.45;;;5.65;;
27642;SDS011;15053;48.618;10.024;2023-06-26T07:56:05;5.80;;;5.03;;
27642;SDS011;15053;48.618;10.024;2023-06-26T07:58:32;8.85;;;5.95;;
27642;SDS011;15053;48.618;10.024;2023-06-26T08:00:58;9.40;;;5.28;;
27642;SDS011;15053;48.618;10.024;2023-06-26T08:03:25;7.85;;;5.22;;
27642;SDS011;15053;48.618;10.024;2023-06-26T08:06:01;7.70;;;6.00;;
27642;SDS011;15053;48.618;10.024;2023-06-26T08:08:27;9.70;;;6.13;;
27642;SDS011;15053;48.618;10.024;2023-06-26T08:10:54;6.28;;;5.50;;
27642;SDS011;15053;48.618;10.024;2023-06-26T08:13:20;6.32;;;5.45;;
27642;SDS011;15053;48.618;10.024;2023-06-26T08:15:47;7.97;;;5.78;;
27642;SDS011;15053;48.618;10.024;2023-06-26T08:18:13;6.75;;;5.30;;
27642;SDS011;15053;48.618;10.024;2023-06-26T08:20:40;6.57;;;5.85;;
27642;SDS011;15053;48.618;10.024;2023-06-26T08:23:06;7.43;;;5.30;;
27642;SDS011;15053;48.618;10.024;2023-06-26T08:25:33;9.30;;;5.85;;
27642;SDS011;15053;48.618;10.024;2023-06-26T08:28:00;6.35;;;5.30;;
27642;SDS011;15053;48.618;10.024;2023-06-26T08:30:26;9.90;;;5.68;;
27642;SDS011;15053;48.618;10.024;2023-06-26T08:32:57;8.10;;;5.78;;
27642;SDS011;15053;48.618;10.024;2023-06-26T08:35:24;7.40;;;5.57;;
27642;SDS011;15053;48.618;10.024;2023-06-26T08:37:50;7.45;;;5.95;;
27642;SDS011;15053;48.618;10.024;2023-06-26T08:40:17;6.72;;;5.43;;
27642;SDS011;15053;48.618;10.024;2023-06-26T08:42:47;6.00;;;5.28;;
27642;SDS011;15053;48.618;10.024;2023-06-26T08:45:17;7.35;;;5.32;;
27642;SDS011;15053;48.618;10.024;2023-06-26T08:47:43;6.40;;;5.45;;
27642;SDS011;15053;48.618;10.024;2023-06-26T08:50:12;8.65;;;5.63;;
27642;SDS011;15053;48.618;10.024;2023-06-26T08:52:43;7.50;;;6.28;;
27642;SDS011;15053;48.618;10.024;2023-06-26T08:55:17;6.45;;;5.57;;
27642;SDS011;15053;48.618;10.024;2023-06-26T08:57:48;5.93;;;5.22;;
27642;SDS011;15053;48.618;10.024;2023-06-26T09:00:15;7.53;;;5.88;;
27642;SDS011;15053;48.618;10.024;2023-06-26T09:02:43;6.10;;;5.20;;
27642;SDS011;15053;48.618;10.024;2023-06-26T09:05:11;7.43;;;5.75;;
27642;SDS011;15053;48.618;10.024;2023-06-26T09:07:38;7.57;;;5.93;;
27642;SDS011;15053;48.618;10.024;2023-06-26T09:10:05;11.77;;;5.82;;
27642;SDS011;15053;48.618;10.024;2023-06-26T09:12:32;8.50;;;6.28;;
27642;SDS011;15053;48.618;10.024;2023-06-26T09:14:59;7.70;;;6.45;;
27642;SDS011;15053;48.618;10.024;2023-06-26T09:17:29;7.55;;;5.70;;
27642;SDS011;15053;48.618;10.024;2023-06-26T09:22:23;6.13;;;5.50;;
27642;SDS011;15053;48.618;10.024;2023-06-26T09:24:50;7.25;;;5.78;;
27642;SDS011;15053;48.618;10.024;2023-06-26T09:27:17;7.63;;;5.93;;
27642;SDS011;15053;48.618;10.024;2023-06-26T09:29:47;8.55;;;6.43;;
27642;SDS011;15053;48.618;10.024;2023-06-26T09:32:14;7.03;;;6.32;;
27642;SDS011;15053;48.618;10.024;2023-06-26T09:34:41;7.10;;;5.65;;
27642;SDS011;15053;48.618;10.024;2023-06-26T09:37:11;7.60;;;5.90;;
27642;SDS011;15053;48.618;10.024;2023-06-26T09:39:39;11.98;;;5.75;;
27642;SDS011;15053;48.618;10.024;2023-06-26T09:42:06;9.43;;;6.20;;
27642;SDS011;15053;48.618;10.024;2023-06-26T09:44:33;8.23;;;5.68;;
27642;SDS011;15053;48.618;10.024;2023-06-26T09:47:01;9.55;;;6.43;;
27642;SDS011;15053;48.618;10.024;2023-06-26T09:49:30;8.32;;;6.53;;
27642;SDS011;15053;48.618;10.024;2023-06-26T09:51:57;7.05;;;6.15;;
27642;SDS011;15053;48.618;10.024;2023-06-26T09:54:26;8.85;;;6.07;;
27642;SDS011;15053;48.618;10.024;2023-06-26T09:57:08;8.55;;;5.85;;
27642;SDS011;15053;48.618;10.024;2023-06-26T09:59:35;8.40;;;5.93;;
27642;SDS011;15053;48.618;10.024;2023-06-26T10:02:02;7.10;;;6.32;;
27642;SDS011;15053;48.618;10.024;2023-06-26T10:04:29;6.53;;;5.80;;
27642;SDS011;15053;48.618;10.024;2023-06-26T10:06:56;10.60;;;6.18;;
27642;SDS011;15053;48.618;10.024;2023-06-26T10:14:29;7.85;;;6.15;;
27642;SDS011;15053;48.618;10.024;2023-06-26T10:17:03;8.80;;;5.60;;
27642;SDS011;15053;48.618;10.024;2023-06-26T10:19:32;8.13;;;5.93;;
27642;SDS011;15053;48.618;10.024;2023-06-26T10:21:59;8.18;;;6.57;;
27642;SDS011;15053;48.618;10.024;2023-06-26T10:24:29;7.15;;;6.13;;
27642;SDS011;15053;48.618;10.024;2023-06-26T10:27:02;9.07;;;6.70;;
27642;SDS011;15053;48.618;10.024;2023-06-26T10:29:34;8.63;;;6.00;;
27642;SDS011;15053;48.618;10.024;2023-06-26T10:32:02;6.63;;;5.90;;
27642;SDS011;15053;48.618;10.024;2023-06-26T10:34:30;8.80;;;6.75;;
27642;SDS011;15053;48.618;10.024;2023-06-26T10:37:01;8.07;;;7.10;;
27642;SDS011;15053;48.618;10.024;2023-06-26T10:39:45;7.70;;;6.88;;
27642;SDS011;15053;48.618;10.024;2023-06-26T10:42:12;9.73;;;7.22;;
27642;SDS011;15053;48.618;10.024;2023-06-26T10:44:42;8.27;;;6.57;;
27642;SDS011;15053;48.618;10.024;2023-06-26T10:47:10;7.25;;;6.32;;
27642;SDS011;15053;48.618;10.024;2023-06-26T10:53:08;7.10;;;6.22;;
27642;SDS011;15053;48.618;10.024;2023-06-26T10:55:55;10.68;;;7.57;;
27642;SDS011;15053;48.618;10.024;2023-06-26T11:04:00;7.70;;;6.90;;
27642;SDS011;15053;48.618;10.024;2023-06-26T11:06:34;7.40;;;6.57;;
27642;SDS011;15053;48.618;10.024;2023-06-26T11:11:54;7.30;;;6.53;;
27642;SDS011;15053;48.618;10.024;2023-06-26T11:14:25;10.40;;;6.80;;
27642;SDS011;15053;48.618;10.024;2023-06-26T11:16:56;7.88;;;7.05;;
27642;SDS011;15053;48.618;10.024;2023-06-26T11:19:24;7.82;;;6.95;;
27642;SDS011;15053;48.618;10.024;2023-06-26T11:21:52;8.80;;;6.78;;
27642;SDS011;15053;48.618;10.024;2023-06-26T11:24:24;9.60;;;7.28;;
27642;SDS011;15053;48.618;10.024;2023-06-26T11:26:51;8.00;;;7.20;;
27642;SDS011;15053;48.618;10.024;2023-06-26T11:29:18;8.80;;;6.80;;
27642;SDS011;15053;48.618;10.024;2023-06-26T11:31:45;7.65;;;6.75;;
27642;SDS011;15053;48.618;10.024;2023-06-26T11:34:12;11.07;;;7.43;;
27642;SDS011;15053;48.618;10.024;2023-06-26T11:36:41;10.93;;;7.47;;
27642;SDS011;15053;48.618;10.024;2023-06-26T11:39:09;10.38;;;7.72;;
27642;SDS011;15053;48.618;10.024;2023-06-26T11:41:36;8.88;;;6.85;;
27642;SDS011;15053;48.618;10.024;2023-06-26T11:44:05;9.63;;;6.90;;
27642;SDS011;15053;48.618;10.024;2023-06-26T11:46:36;7.85;;;7.05;;
27642;SDS011;15053;48.618;10.024;2023-06-26T11:51:34;9.88;;;6.85;;
27642;SDS011;15053;48.618;10.024;2023-06-26T11:54:02;10.23;;;7.20;;
27642;SDS011;15053;48.618;10.024;2023-06-26T11:56:30;7.93;;;7.13;;
27642;SDS011;15053;48.618;10.024;2023-06-26T12:01:31;8.93;;;7.67;;
27642;SDS011;15053;48.618;10.024;2023-06-26T12:04:01;9.98;;;8.13;;
27642;SDS011;15053;48.618;10.024;2023-06-26T12:06:37;12.77;;;7.55;;
27642;SDS011;15053;48.618;10.024;2023-06-26T12:09:07;10.20;;;7.40;;
27642;SDS011;15053;48.618;10.024;2023-06-26T12:11:36;11.07;;;7.85;;
27642;SDS011;15053;48.618;10.024;2023-06-26T12:14:07;7.85;;;6.72;;
27642;SDS011;15053;48.618;10.024;2023-06-26T12:16:35;7.60;;;6.80;;
27642;SDS011;15053;48.618;10.024;2023-06-26T12:19:03;9.20;;;6.47;;
27642;SDS011;15053;48.618;10.024;2023-06-26T12:21:43;15.02;;;7.10;;
27642;SDS011;15053;48.618;10.024;2023-06-26T12:24:13;9.25;;;6.22;;
27642;SDS011;15053;48.618;10.024;2023-06-26T12:26:44;7.97;;;6.50;;
27642;SDS011;15053;48.618;10.024;2023-06-26T12:29:12;7.22;;;6.30;;
27642;SDS011;15053;48.618;10.024;2023-06-26T12:31:43;8.15;;;6.50;;
27642;SDS011;15053;48.618;10.024;2023-06-26T12:34:13;9.05;;;6.28;;
27642;SDS011;15053;48.618;10.024;2023-06-26T12:39:19;8.98;;;6.22;;
27642;SDS011;15053;48.618;10.024;2023-06-26T12:41:54;16.02;;;7.07;;
27642;SDS011;15053;48.618;10.024;2023-06-26T12:44:25;8.52;;;6.05;;
27642;SDS011;15053;48.618;10.024;2023-06-26T12:46:57;9.93;;;6.93;;
27642;SDS011;15053;48.618;10.024;2023-06-26T12:52:03;9.10;;;6.32;;
27642;SDS011;15053;48.618;10.024;2023-06-26T12:54:31;8.57;;;6.60;;
27642;SDS011;15053;48.618;10.024;2023-06-26T12:56:58;9.77;;;6.93;;
27642;SDS011;15053;48.618;10.024;2023-06-26T12:59:24;10.10;;;7.88;;
27642;SDS011;15053;48.618;10.024;2023-06-26T13:01:51;7.65;;;6.78;;
27642;SDS011;15053;48.618;10.024;2023-06-26T13:04:17;9.30;;;7.28;;
27642;SDS011;15053;48.618;10.024;2023-06-26T13:06:44;8.63;;;7.00;;
27642;SDS011;15053;48.618;10.024;2023-06-26T13:09:11;8.90;;;7.43;;
27642;SDS011;15053;48.618;10.024;2023-06-26T13:11:38;9.63;;;6.82;;
27642;SDS011;15053;48.618;10.024;2023-06-26T13:14:04;14.38;;;8.30;;
27642;SDS011;15053;48.618;10.024;2023-06-26T13:16:36;11.90;;;7.68;;
27642;SDS011;15053;48.618;10.024;2023-06-26T13:19:03;13.85;;;8.05;;
27642;SDS011;15053;48.618;10.024;2023-06-26T13:21:30;13.95;;;9.15;;
27642;SDS011;15053;48.618;10.024;2023-06-26T13:23:56;11.30;;;9.07;;
27642;SDS011;15053;48.618;10.024;2023-06-26T13:26:23;10.65;;;8.48;;
27642;SDS011;15053;48.618;10.024;2023-06-26T13:29:03;14.02;;;8.32;;
27642;SDS011;15053;48.618;10.024;2023-06-26T13:31:29;11.73;;;8.25;;
27642;SDS011;15053;48.618;10.024;2023-06-26T13:33:59;11.07;;;8.05;;
27642;SDS011;15053;48.618;10.024;2023-06-26T13:36:26;9.95;;;8.60;;
27642;SDS011;15053;48.618;10.024;2023-06-26T13:38:54;15.38;;;9.02;;
27642;SDS011;15053;48.618;10.024;2023-06-26T13:41:23;13.20;;;8.52;;
27642;SDS011;15053;48.618;10.024;2023-06-26T13:43:51;12.43;;;8.40;;
27642;SDS011;15053;48.618;10.024;2023-06-26T13:46:20;14.63;;;8.68;;
27642;SDS011;15053;48.618;10.024;2023-06-26T13:48:47;11.25;;;8.10;;
27642;SDS011;15053;48.618;10.024;2023-06-26T13:51:13;14.23;;;8.35;;
27642;SDS011;15053;48.618;10.024;2023-06-26T13:53:40;15.52;;;8.00;;
27642;SDS011;15053;48.618;10.024;2023-06-26T13:56:06;16.08;;;8.10;;
27642;SDS011;15053;48.618;10.024;2023-06-26T13:58:35;9.90;;;7.65;;
27642;SDS011;15053;48.618;10.024;2023-06-26T14:01:02;11.43;;;8.70;;
27642;SDS011;15053;48.618;10.024;2023-06-26T14:03:30;16.60;;;8.02;;
27642;SDS011;15053;48.618;10.024;2023-06-26T14:05:57;10.95;;;8.20;;
27642;SDS011;15053;48.618;10.024;2023-06-26T14:08:24;8.80;;;7.78;;
27642;SDS011;15053;48.618;10.024;2023-06-26T14:10:50;13.30;;;8.75;;
27642;SDS011;15053;48.618;10.024;2023-06-26T14:13:17;16.63;;;8.90;;
27642;SDS011;15053;48.618;10.024;2023-06-26T14:15:48;8.77;;;7.75;;
27642;SDS011;15053;48.618;10.024;2023-06-26T14:18:15;10.38;;;6.95;;
27642;SDS011;15053;48.618;10.024;2023-06-26T14:20:41;11.65;;;7.88;;
27642;SDS011;15053;48.618;10.024;2023-06-26T14:23:08;11.55;;;7.60;;
27642;SDS011;15053;48.618;10.024;2023-06-26T14:25:34;12.38;;;7.72;;
27642;SDS011;15053;48.618;10.024;2023-06-26T14:28:01;13.80;;;7.85;;
27642;SDS011;15053;48.618;10.024;2023-06-26T14:30:28;9.82;;;7.57;;
27642;SDS011;15053;48.618;10.024;2023-06-26T14:32:54;9.57;;;7.82;;
27642;SDS011;15053;48.618;10.024;2023-06-26T14:35:21;11.35;;;7.30;;
27642;SDS011;15053;48.618;10.024;2023-06-26T14:37:48;10.30;;;7.50;;
27642;SDS011;15053;48.618;10.024;2023-06-26T14:40:14;12.27;;;7.50;;
27642;SDS011;15053;48.618;10.024;2023-06-26T14:42:41;15.98;;;7.97;;
27642;SDS011;15053;48.618;10.024;2023-06-26T14:45:10;10.35;;;7.55;;
27642;SDS011;15053;48.618;10.024;2023-06-26T14:47:37;11.73;;;7.03;;
27642;SDS011;15053;48.618;10.024;2023-06-26T14:50:04;10.10;;;7.30;;
27642;SDS011;15053;48.618;10.024;2023-06-26T14:52:31;9.50;;;7.32;;
27642;SDS011;15053;48.618;10.024;2023-06-26T14:54:58;8.55;;;7.15;;
27642;SDS011;15053;48.618;10.024;2023-06-26T14:57:25;10.15;;;7.75;;
27642;SDS011;15053;48.618;10.024;2023-06-26T14:59:52;8.23;;;7.25;;
27642;SDS011;15053;48.618;10.024;2023-06-26T15:02:18;9.00;;;7.13;;
27642;SDS011;15053;48.618;10.024;2023-06-26T15:04:45;11.35;;;7.20;;
27642;SDS011;15053;48.618;10.024;2023-06-26T15:07:12;9.85;;;7.35;;
27642;SDS011;15053;48.618;10.024;2023-06-26T15:09:38;10.55;;;7.47;;